Weather reports worldwide

Advertisment
Dunstaffnage, United Kingdom (99006): temperature & dewpoint: 20.05.2019 01:00:00 - 26.05.2019 01:00:00 (BST)Dunstaffnage, United Kingdom (99006): temperature -20cm: 20.05.2019 01:00:00 - 26.05.2019 01:00:00 (BST)Dunstaffnage, United Kingdom (99006): wind speed: 20.05.2019 01:00:00 - 26.05.2019 01:00:00 (BST)Dunstaffnage, United Kingdom (99006): wind direction: 20.05.2019 01:00:00 - 26.05.2019 01:00:00 (BST)Dunstaffnage, United Kingdom (99006): precipitation: 20.05.2019 01:00:00 - 26.05.2019 01:00:00 (BST)
Date & Time tt [°C] td [°C] tt -20cm [°C] ff [km/h] ff [kn] dd rr [mm]
26.05.2019 01:00:00 - - - - - - -
26.05.2019 00:00:00 11,3 11,1 - 11 6 SW 0,0
25.05.2019 23:00:00 11,3 11,0 - 11 6 SW 0,6
25.05.2019 22:00:00 11,3 11,0 - 13 7 SW 1,2
25.05.2019 21:00:00 11,4 11,1 - 13 7 SW 1,4
25.05.2019 20:00:00 11,4 11,1 - 15 8 SW 2,0
25.05.2019 19:00:00 11,7 11,3 - 13 7 SW 1,0
25.05.2019 18:00:00 11,9 11,4 - 13 7 SW 0,2
25.05.2019 17:00:00 11,4 11,0 - 8 4 S 1,8
25.05.2019 16:00:00 10,4 9,9 - 2 1 NNW 3,8
25.05.2019 15:00:00 10,1 9,5 - 2 1 ENE 1,2
25.05.2019 14:00:00 9,7 8,9 - 8 4 ENE 1,0
25.05.2019 13:00:00 9,7 8,7 - 9 5 WSW 1,0
25.05.2019 12:00:00 9,9 8,5 - 9 5 WSW 0,6
25.05.2019 11:00:00 10,0 7,8 - 8 4 SSW 0,4
25.05.2019 10:00:00 10,1 6,2 11,7 5 3 W 0,0
25.05.2019 09:00:00 10,0 6,5 - 2 1 NNE 0,0
25.05.2019 08:00:00 9,2 7,0 - 4 2 NE 0,0
25.05.2019 07:00:00 8,1 6,8 - 0 0 N 0,0
25.05.2019 06:00:00 7,4 6,5 - 2 1 E 0,0
25.05.2019 05:00:00 6,7 5,4 - 2 1 WSW 0,0
25.05.2019 04:00:00 7,3 5,6 - 4 2 SW 0,0
25.05.2019 03:00:00 8,2 6,1 - 8 4 W 0,0
25.05.2019 02:00:00 7,7 5,7 - 5 3 WSW 0,0
25.05.2019 01:00:00 8,6 5,8 - 9 5 WNW 0,0
25.05.2019 00:00:00 9,0 6,0 - 13 7 W 0,0
24.05.2019 23:00:00 8,9 6,1 - 11 6 W 0,0
24.05.2019 22:00:00 9,2 5,8 - 15 8 W 0,0
24.05.2019 21:00:00 10,3 5,7 - 15 8 W 0,0
24.05.2019 20:00:00 11,7 6,6 - 26 14 W 0,0
24.05.2019 19:00:00 11,5 6,4 - 24 13 W 0,0
24.05.2019 18:00:00 11,7 6,5 - 22 12 W 0,0
24.05.2019 17:00:00 12,3 6,7 - 26 14 W 0,0
24.05.2019 16:00:00 12,2 6,6 - 22 12 W 0,0
24.05.2019 15:00:00 12,5 6,5 - 22 12 W 0,0
24.05.2019 14:00:00 11,9 6,6 - 13 7 W 0,0
24.05.2019 13:00:00 11,8 7,0 - 15 8 W 0,0
24.05.2019 12:00:00 11,2 6,5 - 16 9 W 0,0
24.05.2019 11:00:00 10,3 5,1 - 18 10 WNW 0,0
24.05.2019 10:00:00 10,1 5,2 12,2 13 7 WNW 0,0
24.05.2019 09:00:00 9,8 6,0 - 15 8 WNW 0,0
24.05.2019 08:00:00 9,5 5,6 - 15 8 WNW 0,0
24.05.2019 07:00:00 9,5 5,5 - 18 10 WNW 0,0
24.05.2019 06:00:00 9,3 5,5 - 15 8 WNW 0,0
24.05.2019 05:00:00 9,5 5,3 - 24 13 WNW 0,0
24.05.2019 04:00:00 9,4 5,4 - 21 11 W 0,0
24.05.2019 03:00:00 9,5 5,1 - 22 12 W 0,0
24.05.2019 02:00:00 9,3 6,5 - 18 10 W 0,0
24.05.2019 01:00:00 9,5 5,6 - 21 11 W 0,0
24.05.2019 00:00:00 9,3 6,8 - 16 9 WSW 0,0
23.05.2019 23:00:00 9,1 7,2 - 18 10 W 0,0
23.05.2019 22:00:00 9,8 6,9 - 16 9 W 0,0
23.05.2019 21:00:00 10,3 7,0 - 22 12 W 0,0
23.05.2019 20:00:00 10,2 7,7 - 22 12 W 0,0
23.05.2019 19:00:00 10,9 7,4 - 24 13 W 0,0
23.05.2019 18:00:00 11,5 8,0 - 24 13 W 0,0
23.05.2019 17:00:00 12,0 8,2 - 28 15 W 0,0
23.05.2019 16:00:00 11,0 8,0 - 26 14 W 0,0
23.05.2019 15:00:00 11,6 8,0 - 21 11 W 0,0
23.05.2019 14:00:00 11,1 7,2 - 21 11 W 0,0
23.05.2019 13:00:00 11,5 8,4 - 24 13 W 0,0
23.05.2019 12:00:00 11,3 8,7 - 18 10 W 0,0
23.05.2019 11:00:00 10,5 8,9 - 21 11 W 0,0
23.05.2019 10:00:00 10,4 8,2 12,4 16 9 WNW 0,0
23.05.2019 09:00:00 10,0 8,6 - 21 11 W 0,0
23.05.2019 08:00:00 9,4 8,6 - 18 10 W 0,2
23.05.2019 07:00:00 9,2 8,3 - 21 11 W 0,0
23.05.2019 06:00:00 9,8 7,8 - 15 8 W 0,0
23.05.2019 05:00:00 9,9 7,9 - 13 7 W 0,0
23.05.2019 04:00:00 9,7 7,9 - 15 8 W 0,0
23.05.2019 03:00:00 9,9 7,1 - 11 6 WSW 0,0
23.05.2019 02:00:00 10,2 7,1 - 16 9 W 0,0
23.05.2019 01:00:00 10,2 6,8 - 18 10 W 0,0
23.05.2019 00:00:00 10,2 6,8 - 18 10 W 0,0
22.05.2019 23:00:00 10,2 7,5 - 16 9 W 0,0
22.05.2019 22:00:00 10,2 6,6 - 13 7 WNW 0,0
22.05.2019 21:00:00 10,9 6,5 - 15 8 W 0,0
22.05.2019 20:00:00 12,1 5,8 - 21 11 W 0,0
22.05.2019 19:00:00 12,4 7,6 - 21 11 W 0,0
22.05.2019 18:00:00 11,6 6,8 - 24 13 W 0,0
22.05.2019 17:00:00 11,9 6,9 - 16 9 W 0,0
22.05.2019 16:00:00 12,3 6,9 - 15 8 W 0,0
22.05.2019 15:00:00 12,9 7,4 - 21 11 W 0,0
22.05.2019 14:00:00 12,2 7,0 - 15 8 W 0,0
22.05.2019 13:00:00 14,1 8,7 - 26 14 W 0,0
22.05.2019 12:00:00 10,8 7,0 - 22 12 W 0,0
22.05.2019 11:00:00 10,6 7,1 - 16 9 WSW 0,0
22.05.2019 10:00:00 10,7 7,5 12,7 15 8 W 0,0
22.05.2019 09:00:00 10,1 6,8 - 15 8 W 0,0
22.05.2019 08:00:00 9,5 6,7 - 15 8 W 0,0
22.05.2019 07:00:00 8,9 6,6 - 15 8 W 0,0
22.05.2019 06:00:00 7,5 6,1 - 11 6 SW 0,0
22.05.2019 05:00:00 7,7 6,1 - 13 7 WSW 0,0
22.05.2019 04:00:00 7,6 5,7 - 13 7 W 0,0
22.05.2019 03:00:00 8,1 6,1 - 11 6 WSW 0,0
22.05.2019 02:00:00 8,1 6,0 - 16 9 W 0,0
22.05.2019 01:00:00 9,0 5,9 - 16 9 WNW 0,0
22.05.2019 00:00:00 8,9 5,5 - 11 6 W 0,0
21.05.2019 23:00:00 9,4 6,0 - 15 8 W 0,0
21.05.2019 22:00:00 9,8 6,0 - 15 8 W 0,0
21.05.2019 21:00:00 10,8 6,2 - 18 10 W 0,0
21.05.2019 20:00:00 11,6 6,3 - 22 12 W 0,0
21.05.2019 19:00:00 13,7 6,2 - 15 8 WNW 0,0
21.05.2019 18:00:00 12,9 5,0 - 16 9 WNW 0,0
21.05.2019 17:00:00 13,3 5,6 - 22 12 W 0,0
21.05.2019 16:00:00 13,2 5,0 - 21 11 W 0,0
21.05.2019 15:00:00 14,2 5,8 - 26 14 W 0,0
21.05.2019 14:00:00 13,9 7,6 - 22 12 W 0,0
21.05.2019 13:00:00 14,9 9,3 - 21 11 W 0,0
21.05.2019 12:00:00 15,2 8,1 - 11 6 W 0,0
21.05.2019 11:00:00 14,5 8,1 - 9 5 WSW 0,0
21.05.2019 10:00:00 12,1 7,0 12,5 11 6 WNW 0,0
21.05.2019 09:00:00 12,2 7,4 - 13 7 WNW 0,0
21.05.2019 08:00:00 11,0 7,4 - 8 4 W 0,0
21.05.2019 07:00:00 9,6 8,0 - 2 1 S 0,0
21.05.2019 06:00:00 8,3 7,8 - 2 1 S 0,0
21.05.2019 05:00:00 7,2 6,6 - 4 2 SSW 0,0
21.05.2019 04:00:00 6,8 5,9 - 5 3 SW 0,0
21.05.2019 03:00:00 7,5 6,4 - 5 3 S 0,0
21.05.2019 02:00:00 8,2 7,0 - 5 3 SSW 0,0
21.05.2019 01:00:00 8,3 7,4 - 8 4 SSW 0,0
21.05.2019 00:00:00 8,2 7,0 - 11 6 SSW 0,0
20.05.2019 23:00:00 9,8 7,9 - 8 4 W 0,0
20.05.2019 22:00:00 9,8 8,0 - 9 5 SW 0,0
20.05.2019 21:00:00 10,6 8,2 - 11 6 W 0,0
20.05.2019 20:00:00 11,2 8,1 - 22 12 W 0,0
20.05.2019 19:00:00 13,7 9,0 - 28 15 W 0,0
20.05.2019 18:00:00 14,7 8,4 - 24 13 W 0,0
20.05.2019 17:00:00 13,2 7,8 - 21 11 W 0,0
20.05.2019 16:00:00 14,5 8,9 - 13 7 W 0,0
20.05.2019 15:00:00 14,1 8,4 - 18 10 W 0,0
20.05.2019 14:00:00 14,6 10,5 - 16 9 W 0,0
20.05.2019 13:00:00 13,5 9,4 - 16 9 W 0,0
20.05.2019 12:00:00 13,2 9,8 - 13 7 WSW 0,0
20.05.2019 11:00:00 12,8 9,6 - 9 5 W 0,0
20.05.2019 10:00:00 11,1 9,3 12,7 9 5 WSW 0,0
20.05.2019 09:00:00 10,8 9,6 - 9 5 W 0,0
20.05.2019 08:00:00 10,1 9,3 - 8 4 WSW 0,0
20.05.2019 07:00:00 9,7 9,0 - 9 5 WSW 0,0
20.05.2019 06:00:00 9,5 8,8 - 11 6 W 0,6
20.05.2019 05:00:00 9,7 8,9 - 21 11 W 0,0
20.05.2019 04:00:00 9,9 9,1 - 15 8 W 0,0
20.05.2019 03:00:00 10,0 9,2 - 5 3 SSW 0,0
20.05.2019 02:00:00 10,0 9,2 - 5 3 SSW 0,0
20.05.2019 01:00:00 10,1 9,3 - 8 4 SSW 0,0

tt = temperature
td = dewpoint
tt -20cm = temperature -20cm
ff = wind speed
dd = wind direction
rr = precipitation

Next stations